createdAt,value
2019-05-28T00:00:04.100Z,7.60
2019-05-28T00:01:04.087Z,7.40
2019-05-28T00:02:04.100Z,7.70
2019-05-28T00:03:04.069Z,7.80
2019-05-28T00:04:04.083Z,8.00
2019-05-28T00:05:04.053Z,7.30
2019-05-28T00:06:04.038Z,7.20
2019-05-28T00:07:04.060Z,7.80
2019-05-28T00:08:04.036Z,7.30
2019-05-28T00:09:04.025Z,6.90
2019-05-28T00:10:04.134Z,7.20
2019-05-28T00:11:03.982Z,7.70
2019-05-28T00:12:03.971Z,7.40
2019-05-28T00:13:03.961Z,7.20
2019-05-28T00:14:03.957Z,7.00
2019-05-28T00:15:04.022Z,6.80
2019-05-28T00:16:03.930Z,8.00
2019-05-28T00:17:03.914Z,7.00
2019-05-28T00:18:03.906Z,7.40
2019-05-28T00:19:04.341Z,7.00
2019-05-28T00:20:03.891Z,7.30
2019-05-28T00:21:03.883Z,7.30
2019-05-28T00:22:03.933Z,6.90
2019-05-28T00:23:03.861Z,6.80
2019-05-28T00:24:03.883Z,6.60
2019-05-28T00:25:03.833Z,7.90
2019-05-28T00:26:03.830Z,6.90
2019-05-28T00:27:03.823Z,7.70
2019-05-28T00:28:03.803Z,6.60
2019-05-28T00:29:12.354Z,6.80
2019-05-28T00:30:18.463Z,6.60
2019-05-28T00:31:04.768Z,6.30
2019-05-28T00:32:03.759Z,6.70
2019-05-28T00:33:03.738Z,5.90
2019-05-28T00:34:03.742Z,6.50
2019-05-28T00:35:03.741Z,6.60
2019-05-28T00:36:03.784Z,6.90
2019-05-28T00:37:03.701Z,6.50
2019-05-28T00:38:03.694Z,7.40
2019-05-28T00:39:03.728Z,7.40
2019-05-28T00:40:03.670Z,6.90
2019-05-28T00:41:03.665Z,6.90
2019-05-28T00:42:03.663Z,6.30
2019-05-28T00:43:03.634Z,7.00
2019-05-28T00:44:03.632Z,6.80
2019-05-28T00:45:03.676Z,7.30
2019-05-28T00:46:03.672Z,6.60
2019-05-28T00:47:03.639Z,7.10
2019-05-28T00:48:03.590Z,7.30
2019-05-28T00:49:03.571Z,7.50
2019-05-28T00:50:03.567Z,7.00
2019-05-28T00:51:03.627Z,7.00
2019-05-28T00:52:03.545Z,6.90
2019-05-28T00:53:03.544Z,6.80
2019-05-28T00:54:03.513Z,7.20
2019-05-28T00:55:03.502Z,7.40
2019-05-28T00:56:03.497Z,7.30
2019-05-28T00:57:03.559Z,6.90
2019-05-28T00:58:03.478Z,7.10
2019-05-28T00:59:03.475Z,6.80
2019-05-28T01:00:03.455Z,6.60
2019-05-28T01:01:10.946Z,6.60
2019-05-28T01:02:03.433Z,6.90
2019-05-28T01:03:03.423Z,6.90
2019-05-28T01:04:03.410Z,7.00
2019-05-28T01:05:03.405Z,7.20
2019-05-28T01:06:03.388Z,6.90
2019-05-28T01:07:03.459Z,7.50
2019-05-28T01:08:03.417Z,7.20
2019-05-28T01:09:03.362Z,7.50
2019-05-28T01:10:03.348Z,7.00
2019-05-28T01:11:03.403Z,6.70
2019-05-28T01:12:03.328Z,7.00
2019-05-28T01:13:03.315Z,6.70
2019-05-28T01:14:03.309Z,6.90
2019-05-28T01:15:03.410Z,6.90
2019-05-28T01:16:03.283Z,7.20
2019-05-28T01:17:03.269Z,6.70
2019-05-28T01:18:03.281Z,6.90
2019-05-28T01:19:03.293Z,6.60
2019-05-28T01:20:03.234Z,7.00
2019-05-28T01:21:03.241Z,6.30
2019-05-28T01:22:03.259Z,6.20
2019-05-28T01:23:03.208Z,6.50
2019-05-28T01:24:03.223Z,6.40
2019-05-28T01:25:03.188Z,6.90
2019-05-28T01:26:03.169Z,6.40
2019-05-28T01:27:03.161Z,6.50
2019-05-28T01:28:03.154Z,6.30
2019-05-28T01:29:03.187Z,6.70
2019-05-28T01:30:03.173Z,6.50
2019-05-28T01:31:03.117Z,6.80
2019-05-28T01:32:03.120Z,6.60
2019-05-28T01:33:10.894Z,6.90
2019-05-28T01:34:03.089Z,6.40
2019-05-28T01:35:03.081Z,7.00
2019-05-28T01:36:03.075Z,7.10
2019-05-28T01:37:03.069Z,7.40
2019-05-28T01:38:03.051Z,6.80
2019-05-28T01:39:03.030Z,7.30
2019-05-28T01:40:03.026Z,7.50
2019-05-28T01:41:03.048Z,7.50
2019-05-28T01:42:03.026Z,7.00
2019-05-28T01:43:02.990Z,7.10
2019-05-28T01:44:03.036Z,7.50
2019-05-28T01:45:02.977Z,7.20
2019-05-28T01:46:02.959Z,8.80
2019-05-28T01:47:02.949Z,8.40
2019-05-28T01:48:02.960Z,8.60
2019-05-28T01:49:02.942Z,7.80
2019-05-28T01:50:02.913Z,9.00
2019-05-28T01:51:02.901Z,8.80
2019-05-28T01:52:02.900Z,8.60
2019-05-28T01:53:02.886Z,7.90
2019-05-28T01:54:02.876Z,9.10
2019-05-28T01:55:02.914Z,10.10
2019-05-28T01:56:02.846Z,10.30
2019-05-28T01:57:02.843Z,11.50
2019-05-28T01:58:02.842Z,10.60
2019-05-28T01:59:02.828Z,11.10
2019-05-28T02:00:02.803Z,10.90
2019-05-28T02:01:12.146Z,10.50
2019-05-28T02:02:03.805Z,10.80
2019-05-28T02:03:02.798Z,11.00
2019-05-28T02:04:02.788Z,9.80
2019-05-28T02:05:09.737Z,9.90
2019-05-28T02:06:02.733Z,10.10
2019-05-28T02:07:02.726Z,10.00
2019-05-28T02:08:02.725Z,10.10
2019-05-28T02:09:02.728Z,9.40
2019-05-28T02:10:02.703Z,10.10
2019-05-28T02:11:02.688Z,8.90
2019-05-28T02:12:02.737Z,9.10
2019-05-28T02:13:02.671Z,10.40
2019-05-28T02:14:02.701Z,10.00
2019-05-28T02:15:02.643Z,10.10
2019-05-28T02:16:02.716Z,10.60
2019-05-28T02:17:02.629Z,10.20
2019-05-28T02:18:02.606Z,9.30
2019-05-28T02:19:02.692Z,9.50
2019-05-28T02:20:02.600Z,9.00
2019-05-28T02:21:02.578Z,9.90
2019-05-28T02:22:02.577Z,11.50
2019-05-28T02:23:02.555Z,13.30
2019-05-28T02:24:02.623Z,13.60
2019-05-28T02:25:02.579Z,13.60
2019-05-28T02:26:02.530Z,13.70
2019-05-28T02:27:02.518Z,13.60
2019-05-28T02:28:02.506Z,13.20
2019-05-28T02:29:02.501Z,13.30
2019-05-28T02:30:02.853Z,13.80
2019-05-28T02:31:02.485Z,14.90
2019-05-28T02:32:02.467Z,12.60
2019-05-28T02:33:02.466Z,14.00
2019-05-28T02:34:02.452Z,14.60
2019-05-28T02:35:02.425Z,14.00
2019-05-28T02:36:02.432Z,13.00
2019-05-28T02:37:11.443Z,12.80
2019-05-28T02:38:02.391Z,12.90
2019-05-28T02:39:02.384Z,12.60
2019-05-28T02:40:02.370Z,12.90
2019-05-28T02:41:02.389Z,12.60
2019-05-28T02:42:02.394Z,13.60
2019-05-28T02:43:02.335Z,12.00
2019-05-28T02:44:02.336Z,13.20
2019-05-28T02:45:02.353Z,13.40
2019-05-28T02:46:02.362Z,14.90
2019-05-28T02:47:02.358Z,13.40
2019-05-28T02:48:02.288Z,14.30
2019-05-28T02:49:02.281Z,13.40
2019-05-28T02:50:02.282Z,9.80
2019-05-28T02:51:02.253Z,9.10
2019-05-28T02:52:02.260Z,9.30
2019-05-28T02:53:02.230Z,10.10
2019-05-28T02:54:02.219Z,9.90
2019-05-28T02:55:02.252Z,9.80
2019-05-28T02:56:02.204Z,10.10
2019-05-28T02:57:02.298Z,10.00
2019-05-28T02:58:02.184Z,9.60
2019-05-28T02:59:02.184Z,10.10
2019-05-28T03:00:02.157Z,9.60
2019-05-28T03:01:02.150Z,10.50
2019-05-28T03:02:02.195Z,10.40
2019-05-28T03:03:02.157Z,10.70
2019-05-28T03:04:02.120Z,11.70
2019-05-28T03:05:02.106Z,12.30
2019-05-28T03:06:02.090Z,12.60
2019-05-28T03:07:02.087Z,12.80
2019-05-28T03:08:02.068Z,12.40
2019-05-28T03:09:09.495Z,12.50
2019-05-28T03:10:02.051Z,12.50
2019-05-28T03:11:03.802Z,12.10
2019-05-28T03:12:02.025Z,13.40
2019-05-28T03:13:02.026Z,11.20
2019-05-28T03:14:02.046Z,12.70
2019-05-28T03:15:02.058Z,11.60
2019-05-28T03:16:01.982Z,12.00
2019-05-28T03:17:01.966Z,14.40
2019-05-28T03:18:01.986Z,15.60
2019-05-28T03:19:01.959Z,14.90
2019-05-28T03:20:01.950Z,15.50
2019-05-28T03:21:01.928Z,16.70
2019-05-28T03:22:01.924Z,15.70
2019-05-28T03:23:01.910Z,15.30
2019-05-28T03:24:02.051Z,15.70
2019-05-28T03:25:01.878Z,15.90
2019-05-28T03:26:01.885Z,14.40
2019-05-28T03:27:01.863Z,14.30
2019-05-28T03:28:01.849Z,15.10
2019-05-28T03:29:01.842Z,14.70
2019-05-28T03:30:01.972Z,14.30
2019-05-28T03:31:01.907Z,15.00
2019-05-28T03:32:07.711Z,16.00
2019-05-28T03:33:02.803Z,15.90
2019-05-28T03:34:01.787Z,14.30
2019-05-28T03:35:01.783Z,15.30
2019-05-28T03:36:01.811Z,14.20
2019-05-28T03:37:01.819Z,15.50
2019-05-28T03:38:01.759Z,15.10
2019-05-28T03:39:01.739Z,14.20
2019-05-28T03:40:01.724Z,14.10
2019-05-28T03:41:10.504Z,17.10
2019-05-28T03:42:01.696Z,17.00
2019-05-28T03:43:01.694Z,16.30
2019-05-28T03:44:01.680Z,16.90
2019-05-28T03:45:01.671Z,18.10
2019-05-28T03:46:01.719Z,15.70
2019-05-28T03:47:01.639Z,16.60
2019-05-28T03:48:01.632Z,15.40
2019-05-28T03:49:01.624Z,17.60
2019-05-28T03:50:01.614Z,17.20
2019-05-28T03:51:01.656Z,16.20
2019-05-28T03:52:01.628Z,16.30
2019-05-28T03:53:01.584Z,16.30
2019-05-28T03:54:01.579Z,17.20
2019-05-28T03:55:01.615Z,17.50
2019-05-28T03:56:01.594Z,15.30
2019-05-28T03:57:01.577Z,17.10
2019-05-28T03:58:01.523Z,18.90
2019-05-28T03:59:01.512Z,18.00
2019-05-28T04:00:01.523Z,17.20
2019-05-28T04:01:01.489Z,17.90
2019-05-28T04:02:01.577Z,19.40
2019-05-28T04:03:01.483Z,17.50
2019-05-28T04:04:01.471Z,18.60
2019-05-28T04:05:01.479Z,16.40
2019-05-28T04:06:01.479Z,17.70
2019-05-28T04:07:01.427Z,17.50
2019-05-28T04:08:01.465Z,17.60
2019-05-28T04:09:01.411Z,17.50
2019-05-28T04:10:01.407Z,16.60
2019-05-28T04:11:01.387Z,15.10
2019-05-28T04:12:01.451Z,15.90
2019-05-28T04:13:10.025Z,16.30
2019-05-28T04:14:01.362Z,15.20
2019-05-28T04:15:01.341Z,15.00
2019-05-28T04:16:01.333Z,15.90
2019-05-28T04:17:01.315Z,16.80
2019-05-28T04:18:01.310Z,17.20
2019-05-28T04:19:01.320Z,18.90
2019-05-28T04:20:01.344Z,20.10
2019-05-28T04:21:01.287Z,19.10
2019-05-28T04:22:01.280Z,20.20
2019-05-28T04:23:01.254Z,17.70
2019-05-28T04:24:01.255Z,21.30
2019-05-28T04:25:01.249Z,20.40
2019-05-28T04:26:01.225Z,19.80
2019-05-28T04:27:01.422Z,19.20
2019-05-28T04:28:01.203Z,20.30
2019-05-28T04:29:01.201Z,18.80
2019-05-28T04:30:01.234Z,18.70
2019-05-28T04:31:01.233Z,19.60
2019-05-28T04:32:01.161Z,19.90
2019-05-28T04:33:01.149Z,19.90
2019-05-28T04:34:01.140Z,19.50
2019-05-28T04:35:01.169Z,19.10
2019-05-28T04:36:01.156Z,20.10
2019-05-28T04:37:01.158Z,19.70
2019-05-28T04:38:01.103Z,21.60
2019-05-28T04:39:01.084Z,20.10
2019-05-28T04:40:01.075Z,21.90
2019-05-28T04:41:01.065Z,20.00
2019-05-28T04:42:01.100Z,21.00
2019-05-28T04:43:01.030Z,20.90
2019-05-28T04:44:01.022Z,20.60
2019-05-28T04:45:08.568Z,20.20
2019-05-28T04:46:01.007Z,21.40
2019-05-28T04:47:00.994Z,19.50
2019-05-28T04:48:00.985Z,20.00
2019-05-28T04:49:00.976Z,20.40
2019-05-28T04:50:00.963Z,20.20
2019-05-28T04:51:01.060Z,20.10
2019-05-28T04:52:00.971Z,18.80
2019-05-28T04:53:00.931Z,19.00
2019-05-28T04:54:00.926Z,19.50
2019-05-28T04:55:00.946Z,18.90
2019-05-28T04:56:00.899Z,19.10
2019-05-28T04:57:00.899Z,18.80
2019-05-28T04:58:00.874Z,18.60
2019-05-28T04:59:03.857Z,17.80
2019-05-28T05:00:00.905Z,17.30
2019-05-28T05:01:00.837Z,18.00
2019-05-28T05:02:00.828Z,17.80
2019-05-28T05:03:01.118Z,17.80
2019-05-28T05:04:00.807Z,17.60
2019-05-28T05:05:00.811Z,18.70
2019-05-28T05:06:00.943Z,16.80
2019-05-28T05:07:00.849Z,17.10
2019-05-28T05:08:00.760Z,18.60
2019-05-28T05:09:00.760Z,17.80
2019-05-28T05:10:00.747Z,16.50
2019-05-28T05:11:00.737Z,16.40
2019-05-28T05:12:00.770Z,16.30
2019-05-28T05:13:00.713Z,16.10
2019-05-28T05:14:00.711Z,16.70
2019-05-28T05:15:00.692Z,16.60
2019-05-28T05:16:00.677Z,17.60
2019-05-28T05:17:07.650Z,17.20
2019-05-28T05:18:00.654Z,16.10
2019-05-28T05:19:00.664Z,16.80
2019-05-28T05:20:00.698Z,16.60
2019-05-28T05:21:00.623Z,16.30
2019-05-28T05:22:00.622Z,16.20
2019-05-28T05:23:00.603Z,16.50
2019-05-28T05:24:00.604Z,16.70
2019-05-28T05:25:00.588Z,16.30
2019-05-28T05:26:00.574Z,15.70
2019-05-28T05:27:00.565Z,16.60
2019-05-28T05:28:00.562Z,15.50
2019-05-28T05:29:00.532Z,15.90
2019-05-28T05:30:00.630Z,16.20
2019-05-28T05:31:00.523Z,15.50
2019-05-28T05:32:00.499Z,15.90
2019-05-28T05:33:18.525Z,15.40
2019-05-28T05:34:01.482Z,15.20
2019-05-28T05:35:00.474Z,15.00
2019-05-28T05:36:00.473Z,15.40
2019-05-28T05:37:00.448Z,14.00
2019-05-28T05:38:00.492Z,16.20
2019-05-28T05:39:00.429Z,16.40
2019-05-28T05:40:00.422Z,15.80
2019-05-28T05:41:00.414Z,15.30
2019-05-28T05:42:00.421Z,15.10
2019-05-28T05:43:00.390Z,15.70
2019-05-28T05:44:00.380Z,17.30
2019-05-28T05:45:00.385Z,15.40
2019-05-28T05:46:00.357Z,14.40
2019-05-28T05:47:00.341Z,14.00
2019-05-28T05:48:00.347Z,14.70
2019-05-28T05:49:08.114Z,13.40
2019-05-28T05:50:00.307Z,15.30
2019-05-28T05:51:00.295Z,14.10
2019-05-28T05:52:00.302Z,14.30
2019-05-28T05:53:00.275Z,14.60
2019-05-28T05:54:00.269Z,14.20
2019-05-28T05:55:00.254Z,14.30
2019-05-28T05:56:00.245Z,14.90
2019-05-28T05:57:00.346Z,14.80
2019-05-28T05:58:00.222Z,13.40
2019-05-28T05:59:00.213Z,13.00
2019-05-28T06:00:00.260Z,12.80
2019-05-28T06:01:00.240Z,12.80
2019-05-28T06:02:00.185Z,11.80
2019-05-28T06:03:00.170Z,11.50
2019-05-28T06:04:00.154Z,12.50
2019-05-28T06:05:00.146Z,12.30
2019-05-28T06:06:00.160Z,13.10
2019-05-28T06:07:00.129Z,12.30
2019-05-28T06:08:00.139Z,11.90
2019-05-28T06:09:00.158Z,11.70
2019-05-28T06:10:00.179Z,11.40
2019-05-28T06:11:00.087Z,12.60
2019-05-28T06:12:00.099Z,11.10
2019-05-28T06:13:00.097Z,12.70
2019-05-28T06:14:00.047Z,10.70
2019-05-28T06:15:00.049Z,11.60
2019-05-28T06:16:00.033Z,11.20
2019-05-28T06:17:00.030Z,10.90
2019-05-28T06:18:00.054Z,11.60
2019-05-28T06:19:00.077Z,10.70
2019-05-28T06:19:59.977Z,10.80
2019-05-28T06:21:14.860Z,11.20
2019-05-28T06:22:00.959Z,10.80
2019-05-28T06:22:59.952Z,11.30
2019-05-28T06:23:59.936Z,11.10
2019-05-28T06:24:59.960Z,10.10
2019-05-28T06:25:59.917Z,10.80
2019-05-28T06:26:59.991Z,11.30
2019-05-28T06:27:59.936Z,11.40
2019-05-28T06:28:59.916Z,11.40
2019-05-28T06:29:59.899Z,11.10
2019-05-28T06:30:59.860Z,10.90
2019-05-28T06:31:59.881Z,11.60
2019-05-28T06:32:59.842Z,11.80
2019-05-28T06:33:59.904Z,11.50
2019-05-28T06:34:59.814Z,10.90
2019-05-28T06:35:59.815Z,9.90
2019-05-28T06:36:59.798Z,9.50
2019-05-28T06:37:59.788Z,9.20
2019-05-28T06:38:59.775Z,10.10
2019-05-28T06:39:59.843Z,10.80
2019-05-28T06:40:59.765Z,10.50
2019-05-28T06:41:59.750Z,9.90
2019-05-28T06:42:59.731Z,10.10
2019-05-28T06:43:59.756Z,10.80
2019-05-28T06:44:59.756Z,11.00
2019-05-28T06:45:59.700Z,10.50
2019-05-28T06:46:59.714Z,10.80
2019-05-28T06:47:59.679Z,10.50
2019-05-28T06:48:59.667Z,11.20
2019-05-28T06:49:59.662Z,12.50
2019-05-28T06:50:59.673Z,12.10
2019-05-28T06:51:59.638Z,12.80
2019-05-28T06:53:07.115Z,10.40
2019-05-28T06:53:59.611Z,11.00
2019-05-28T06:54:59.598Z,10.50
2019-05-28T06:55:59.605Z,10.90
2019-05-28T06:56:59.598Z,10.20
2019-05-28T06:57:59.584Z,11.30
2019-05-28T06:58:59.562Z,11.50
2019-05-28T06:59:59.544Z,10.80
2019-05-28T07:00:59.567Z,11.20
2019-05-28T07:01:59.545Z,12.90
2019-05-28T07:02:59.562Z,12.30
2019-05-28T07:04:13.182Z,12.40
2019-05-28T07:05:00.494Z,11.90
2019-05-28T07:06:07.068Z,12.60
2019-05-28T07:07:00.517Z,12.60
2019-05-28T07:07:59.469Z,12.40
2019-05-28T07:08:59.447Z,12.80
2019-05-28T07:09:59.438Z,13.90
2019-05-28T07:10:59.520Z,13.90
2019-05-28T07:11:59.428Z,12.30
2019-05-28T07:12:59.428Z,12.50
2019-05-28T07:13:59.396Z,14.20
2019-05-28T07:14:59.434Z,13.70
2019-05-28T07:15:59.380Z,13.30
2019-05-28T07:16:59.395Z,15.90
2019-05-28T07:17:59.791Z,13.10
2019-05-28T07:18:59.351Z,16.90
2019-05-28T07:19:59.347Z,14.30
2019-05-28T07:20:59.325Z,13.00
2019-05-28T07:21:59.306Z,11.90
2019-05-28T07:22:59.296Z,11.30
2019-05-28T07:23:59.374Z,12.40
2019-05-28T07:25:06.769Z,11.20
2019-05-28T07:25:59.267Z,10.40
2019-05-28T07:26:59.259Z,12.50
2019-05-28T07:28:10.252Z,10.30
2019-05-28T07:29:00.273Z,11.10
2019-05-28T07:29:59.217Z,10.80
2019-05-28T07:30:59.208Z,11.70
2019-05-28T07:31:59.215Z,11.90
2019-05-28T07:32:59.199Z,11.30
2019-05-28T07:33:59.213Z,12.40
2019-05-28T07:34:59.175Z,11.60
2019-05-28T07:35:59.160Z,11.60
2019-05-28T07:36:59.164Z,12.80
2019-05-28T07:37:59.174Z,11.90
2019-05-28T07:50:59.028Z,13.40
2019-05-28T07:57:06.424Z,13.80
2019-05-28T08:08:58.810Z,12.30
2019-05-28T08:21:58.673Z,12.20
2019-05-28T08:29:06.235Z,13.60
2019-05-28T08:39:58.467Z,14.30
2019-05-28T08:52:58.322Z,13.50
2019-05-28T09:01:05.752Z,13.00
2019-05-28T09:10:58.189Z,11.80
2019-05-28T09:14:58.132Z,13.00
2019-05-28T09:15:58.147Z,14.10
2019-05-28T09:16:58.090Z,13.40
2019-05-28T09:17:58.105Z,14.10
2019-05-28T09:18:58.038Z,11.50
2019-05-28T09:19:58.026Z,13.00
2019-05-28T09:20:58.047Z,11.70
2019-05-28T09:21:58.041Z,10.60
2019-05-28T09:22:57.997Z,12.20
2019-05-28T09:23:58.034Z,12.30
2019-05-28T09:24:57.979Z,11.90
2019-05-28T09:25:57.964Z,10.10
2019-05-28T09:26:57.956Z,10.00
2019-05-28T09:27:57.953Z,10.80
2019-05-28T09:28:57.956Z,10.60
2019-05-28T09:29:57.947Z,11.60
2019-05-28T09:30:57.925Z,10.40
2019-05-28T09:31:57.922Z,11.80
2019-05-28T09:34:32.954Z,12.10
2019-05-28T09:35:43.962Z,12.30
2019-05-28T09:36:33.923Z,12.50
2019-05-28T09:37:32.914Z,11.30
2019-05-28T09:38:32.913Z,10.50
2019-05-28T09:39:32.896Z,11.70
2019-05-28T09:40:49.418Z,11.10
2019-05-28T09:41:33.883Z,10.80
2019-05-28T09:42:32.880Z,12.00
2019-05-28T09:43:32.890Z,12.20
2019-05-28T09:44:32.844Z,12.00
2019-05-28T09:45:32.879Z,11.10
2019-05-28T09:46:32.811Z,11.50
2019-05-28T09:47:32.809Z,11.10
2019-05-28T09:48:32.792Z,12.70
2019-05-28T09:49:32.803Z,12.70
2019-05-28T09:50:32.886Z,11.40
2019-05-28T09:51:32.760Z,11.10
2019-05-28T09:52:32.747Z,12.00
2019-05-28T09:53:34.861Z,14.00
2019-05-28T09:54:32.732Z,13.50
2019-05-28T09:55:32.722Z,11.90
2019-05-28T09:56:32.943Z,12.20
2019-05-28T09:57:46.317Z,13.00
2019-05-28T09:58:33.680Z,12.40
2019-05-28T09:59:41.108Z,13.60
2019-05-28T10:00:33.672Z,13.40
2019-05-28T10:01:32.662Z,12.90
2019-05-28T10:02:32.644Z,13.60
2019-05-28T10:03:32.661Z,13.70
2019-05-28T10:04:48.643Z,14.10
2019-05-28T10:06:42.377Z,13.70
2019-05-28T10:07:42.361Z,13.50
2019-05-28T10:08:42.377Z,14.50
2019-05-28T10:09:42.366Z,15.00
2019-05-28T10:10:42.329Z,17.00
2019-05-28T10:11:42.340Z,15.80
2019-05-28T10:12:42.311Z,13.90
2019-05-28T10:13:42.299Z,15.00
2019-05-28T10:14:44.309Z,15.80
2019-05-28T10:15:42.301Z,15.70
2019-05-28T10:16:42.312Z,16.50
2019-05-28T10:17:42.301Z,15.50
2019-05-28T10:18:42.253Z,15.80
2019-05-28T10:19:42.279Z,15.00
2019-05-28T10:20:42.231Z,13.70
2019-05-28T10:21:42.210Z,14.10
2019-05-28T10:22:42.238Z,13.80
2019-05-28T10:23:42.198Z,15.50
2019-05-28T10:24:42.185Z,17.30
2019-05-28T10:25:42.174Z,17.40
2019-05-28T10:26:42.161Z,16.80
2019-05-28T10:27:59.526Z,15.40
2019-05-28T10:28:43.192Z,16.40
2019-05-28T10:29:42.126Z,17.10
2019-05-28T10:30:42.126Z,17.20
2019-05-28T10:31:42.102Z,16.40
2019-05-28T10:32:42.097Z,16.40
2019-05-28T10:33:42.100Z,14.50
2019-05-28T10:34:42.099Z,15.90
2019-05-28T10:35:42.059Z,14.40
2019-05-28T10:36:42.060Z,15.30
2019-05-28T10:37:49.600Z,16.80
2019-05-28T10:38:42.036Z,15.40
2019-05-28T10:39:42.028Z,14.90
2019-05-28T10:40:42.007Z,14.80
2019-05-28T10:41:42.039Z,17.10
2019-05-28T10:42:41.985Z,17.00
2019-05-28T10:43:42.006Z,16.90
2019-05-28T10:44:45.153Z,16.10
2019-05-28T10:45:42.088Z,16.50
2019-05-28T10:46:41.949Z,15.60
2019-05-28T10:47:41.953Z,15.60
2019-05-28T10:48:41.914Z,15.50
2019-05-28T10:49:41.944Z,16.10
2019-05-28T10:50:41.901Z,16.90
2019-05-28T10:51:41.900Z,15.80
2019-05-28T10:52:41.900Z,15.00
2019-05-28T10:53:41.906Z,14.60
2019-05-28T10:54:41.866Z,14.40
2019-05-28T10:55:41.845Z,14.70
2019-05-28T10:56:41.855Z,14.40
2019-05-28T10:57:41.837Z,15.90
2019-05-28T10:58:41.848Z,15.40
2019-05-28T10:59:41.810Z,17.30
2019-05-28T11:00:41.796Z,15.70
2019-05-28T11:01:41.793Z,17.60
2019-05-28T11:02:41.792Z,16.40
2019-05-28T11:03:41.796Z,16.60
2019-05-28T11:04:41.762Z,14.60
2019-05-28T11:05:41.776Z,17.40
2019-05-28T11:06:51.375Z,17.40
2019-05-28T11:07:42.713Z,16.40
2019-05-28T11:08:41.715Z,16.50
2019-05-28T11:09:50.633Z,16.40
2019-05-28T11:10:41.684Z,17.80
2019-05-28T11:11:41.671Z,17.90
2019-05-28T11:12:41.659Z,17.30
2019-05-28T11:13:52.495Z,17.50
2019-05-28T11:14:42.633Z,17.60
2019-05-28T11:15:42.143Z,16.80
2019-05-28T11:16:41.636Z,20.20
2019-05-28T11:17:41.607Z,18.70
2019-05-28T11:18:41.609Z,16.60
2019-05-28T11:19:41.619Z,19.10
2019-05-28T11:20:41.597Z,17.20
2019-05-28T11:21:41.624Z,17.30
2019-05-28T11:22:41.577Z,16.90
2019-05-28T11:23:41.568Z,18.70
2019-05-28T11:24:41.528Z,18.60
2019-05-28T11:25:41.574Z,15.50
2019-05-28T11:26:41.520Z,16.60
2019-05-28T11:27:41.505Z,16.10
2019-05-28T11:28:41.535Z,14.90
2019-05-28T11:29:41.481Z,15.00
2019-05-28T11:30:41.474Z,14.80
2019-05-28T11:31:41.470Z,16.00
2019-05-28T11:32:41.468Z,14.40
2019-05-28T11:33:41.440Z,15.60
2019-05-28T11:34:41.434Z,16.00
2019-05-28T11:35:41.443Z,15.60
2019-05-28T11:36:41.401Z,16.30
2019-05-28T11:37:41.385Z,16.30
2019-05-28T11:38:41.402Z,19.10
2019-05-28T11:39:41.367Z,16.80
2019-05-28T11:40:41.355Z,18.20
2019-05-28T11:41:49.132Z,18.40
2019-05-28T11:42:41.336Z,17.70
2019-05-28T11:43:41.325Z,16.40
2019-05-28T11:44:41.323Z,16.50
2019-05-28T11:45:41.295Z,16.10
2019-05-28T11:46:41.292Z,15.60
2019-05-28T11:47:41.284Z,17.50
2019-05-28T11:48:41.358Z,15.50
2019-05-28T11:49:41.264Z,15.70
2019-05-28T11:50:41.255Z,15.10
2019-05-28T11:51:41.264Z,14.40
2019-05-28T11:52:41.222Z,16.00
2019-05-28T11:53:41.214Z,14.10
2019-05-28T11:54:41.246Z,13.70
2019-05-28T11:55:41.198Z,16.00
2019-05-28T11:56:41.229Z,15.80
2019-05-28T11:57:41.168Z,15.20
2019-05-28T11:58:41.172Z,15.10
2019-05-28T11:59:41.194Z,16.60
2019-05-28T12:00:41.138Z,15.20
2019-05-28T12:01:41.343Z,15.80
2019-05-28T12:02:41.224Z,15.90
2019-05-28T12:03:41.109Z,17.10
2019-05-28T12:04:41.101Z,16.10
2019-05-28T12:05:41.128Z,17.70
2019-05-28T12:06:41.074Z,18.30
2019-05-28T12:07:41.058Z,17.90
2019-05-28T12:08:41.052Z,18.40
2019-05-28T12:09:41.056Z,18.30
2019-05-28T12:10:41.098Z,18.00
2019-05-28T12:11:41.043Z,17.30
2019-05-28T12:12:41.005Z,17.30
2019-05-28T12:13:48.666Z,18.10
2019-05-28T12:14:40.980Z,18.70
2019-05-28T12:15:40.997Z,18.20
2019-05-28T12:16:40.979Z,17.40
2019-05-28T12:17:44.372Z,16.20
2019-05-28T12:18:40.947Z,16.90
2019-05-28T12:19:40.991Z,17.40
2019-05-28T12:20:40.941Z,18.70
2019-05-28T12:21:40.958Z,19.20
2019-05-28T12:22:40.904Z,17.90
2019-05-28T12:23:40.905Z,17.30
2019-05-28T12:24:40.928Z,16.30
2019-05-28T12:25:40.891Z,16.80
2019-05-28T12:26:41.038Z,17.90
2019-05-28T12:27:40.852Z,20.70
2019-05-28T12:28:40.830Z,29.50
2019-05-28T12:29:51.438Z,29.50
2019-05-28T12:30:41.809Z,28.40
2019-05-28T12:31:40.801Z,28.90
2019-05-28T12:32:40.806Z,29.60
2019-05-28T12:33:40.783Z,28.80
2019-05-28T12:34:40.776Z,28.30
2019-05-28T12:35:42.871Z,27.70
2019-05-28T12:36:40.743Z,28.50
2019-05-28T12:37:48.312Z,28.60
2019-05-28T12:38:41.819Z,21.50
2019-05-28T12:39:40.751Z,24.70
2019-05-28T12:40:47.892Z,30.10
2019-05-28T12:41:41.711Z,29.90
2019-05-28T12:42:40.677Z,29.70
2019-05-28T12:43:40.688Z,29.30
2019-05-28T12:44:42.466Z,28.60
2019-05-28T12:45:47.638Z,29.40
2019-05-28T12:46:40.642Z,30.20
2019-05-28T12:47:40.630Z,30.30
2019-05-28T12:48:40.633Z,31.20
2019-05-28T12:49:40.604Z,29.30
2019-05-28T12:50:40.601Z,27.60
2019-05-28T12:51:40.590Z,27.50
2019-05-28T12:52:40.598Z,28.00
2019-05-28T12:53:50.239Z,28.00
2019-05-28T12:54:41.553Z,29.10
2019-05-28T12:55:40.545Z,28.70
2019-05-28T12:56:40.549Z,29.40
2019-05-28T12:57:40.517Z,29.50
2019-05-28T12:58:42.831Z,29.80
2019-05-28T12:59:40.496Z,29.60
2019-05-28T13:00:40.488Z,30.90
2019-05-28T13:01:40.475Z,30.30
2019-05-28T13:02:40.464Z,29.60
2019-05-28T13:03:40.530Z,30.00
2019-05-28T13:04:40.450Z,30.50
2019-05-28T13:05:40.431Z,29.00
2019-05-28T13:06:40.417Z,29.00
2019-05-28T13:07:40.414Z,29.40
2019-05-28T13:08:40.402Z,30.00
2019-05-28T13:09:40.399Z,29.10
2019-05-28T13:10:40.389Z,29.00
2019-05-28T13:11:40.365Z,30.50
2019-05-28T13:12:40.353Z,30.70
2019-05-28T13:13:40.344Z,30.90
2019-05-28T13:14:40.365Z,30.90
2019-05-28T13:15:42.471Z,29.30
2019-05-28T13:16:40.311Z,28.30
2019-05-28T13:17:47.296Z,28.10
2019-05-28T13:18:40.286Z,27.70
2019-05-28T13:19:40.283Z,28.90
2019-05-28T13:20:40.273Z,28.30
2019-05-28T13:21:40.262Z,28.40
2019-05-28T13:22:40.259Z,27.30
2019-05-28T13:23:40.244Z,28.20
2019-05-28T13:24:40.234Z,29.30
2019-05-28T13:25:40.254Z,27.70
2019-05-28T13:26:40.235Z,27.20
2019-05-28T13:27:40.188Z,29.50
2019-05-28T13:28:40.190Z,28.50
2019-05-28T13:29:40.204Z,28.00
2019-05-28T13:30:40.200Z,30.30
2019-05-28T13:31:40.205Z,29.60
2019-05-28T13:32:40.138Z,29.60
2019-05-28T13:33:40.128Z,30.70
2019-05-28T13:34:40.138Z,30.30
2019-05-28T13:35:40.144Z,30.60
2019-05-28T13:36:40.092Z,29.90
2019-05-28T13:37:40.108Z,30.50
2019-05-28T13:38:42.629Z,30.90
2019-05-28T13:39:40.063Z,29.30
2019-05-28T13:40:40.048Z,29.60
2019-05-28T13:41:40.073Z,28.90
2019-05-28T13:42:40.035Z,29.60
2019-05-28T13:43:40.036Z,31.10
2019-05-28T13:44:40.008Z,31.50
2019-05-28T13:45:39.999Z,30.90
2019-05-28T13:46:40.029Z,30.80
2019-05-28T13:47:39.981Z,31.30
2019-05-28T13:48:39.960Z,31.20
2019-05-28T13:49:47.275Z,30.70
2019-05-28T13:50:39.942Z,30.90
2019-05-28T13:51:39.935Z,30.80
2019-05-28T13:52:39.929Z,31.10
2019-05-28T13:53:39.927Z,31.10
2019-05-28T13:54:39.897Z,29.90
2019-05-28T13:55:39.886Z,30.40
2019-05-28T13:56:39.927Z,30.70
2019-05-28T13:57:40.078Z,30.70
2019-05-28T13:58:39.893Z,30.20
2019-05-28T13:59:39.855Z,30.90
2019-05-28T14:00:39.858Z,29.80
2019-05-28T14:01:39.819Z,26.30
2019-05-28T14:02:39.809Z,27.40
2019-05-28T14:03:39.805Z,26.30
2019-05-28T14:04:39.798Z,26.00
2019-05-28T14:05:39.792Z,25.10
2019-05-28T14:06:43.838Z,26.40
2019-05-28T14:07:39.758Z,26.70
2019-05-28T14:08:46.719Z,27.90
2019-05-28T14:09:40.728Z,27.30
2019-05-28T14:10:39.718Z,27.10
2019-05-28T14:11:39.737Z,27.50
2019-05-28T14:12:39.784Z,28.30
2019-05-28T14:13:39.702Z,28.70
2019-05-28T14:14:39.691Z,27.10
2019-05-28T14:15:39.665Z,27.20
2019-05-28T14:16:39.675Z,28.30
2019-05-28T14:17:39.656Z,28.20
2019-05-28T14:18:39.763Z,27.90
2019-05-28T14:19:39.622Z,27.20
2019-05-28T14:20:39.622Z,27.10
2019-05-28T14:21:47.295Z,27.40
2019-05-28T14:22:39.585Z,27.70
2019-05-28T14:23:39.584Z,28.60
2019-05-28T14:24:39.571Z,28.30
2019-05-28T14:25:39.605Z,26.50
2019-05-28T14:26:39.539Z,26.50